createdAt,value
2022-11-19T00:02:34.770Z,0.10
2022-11-19T00:06:37.490Z,0.20
2022-11-19T00:10:42.154Z,0.10
2022-11-19T00:14:44.928Z,0.10
2022-11-19T00:18:47.532Z,0.10
2022-11-19T00:22:52.530Z,0.10
2022-11-19T00:26:56.888Z,0.10
2022-11-19T00:31:03.001Z,0.10
2022-11-19T00:35:06.727Z,0.10
2022-11-19T00:39:09.448Z,0.10
2022-11-19T00:43:30.911Z,0.10
2022-11-19T00:47:33.675Z,0.10
2022-11-19T00:51:36.767Z,0.20
2022-11-19T00:55:39.597Z,0.10
2022-11-19T00:59:43.900Z,0.10
2022-11-19T01:03:47.041Z,0.10
2022-11-19T01:07:49.743Z,0.10
2022-11-19T01:11:52.428Z,0.10
2022-11-19T01:15:56.501Z,0.10
2022-11-19T01:19:59.471Z,0.10
2022-11-19T01:24:03.270Z,0.10
2022-11-19T01:28:06.727Z,0.10
2022-11-19T01:32:10.729Z,0.10
2022-11-19T01:36:15.104Z,0.10
2022-11-19T01:40:17.941Z,0.20
2022-11-19T01:44:56.156Z,0.10
2022-11-19T01:49:03.796Z,0.10
2022-11-19T01:53:08.865Z,0.20
2022-11-19T01:57:14.521Z,0.10
2022-11-19T02:01:17.838Z,0.10
2022-11-19T02:05:22.292Z,0.10
2022-11-19T02:09:25.601Z,0.20
2022-11-19T02:13:32.171Z,0.10
2022-11-19T02:17:50.670Z,0.10
2022-11-19T02:22:01.558Z,0.10
2022-11-19T02:26:28.672Z,0.10
2022-11-19T02:30:35.277Z,0.10
2022-11-19T02:34:42.737Z,0.10
2022-11-19T02:38:50.128Z,0.10
2022-11-19T02:42:59.237Z,0.10
2022-11-19T02:47:05.494Z,0.10
2022-11-19T02:51:09.252Z,0.10
2022-11-19T02:55:13.554Z,0.10
2022-11-19T02:59:35.787Z,0.10
2022-11-19T03:03:58.738Z,0.10
2022-11-19T03:08:01.783Z,0.10
2022-11-19T03:12:12.995Z,0.10
2022-11-19T03:16:39.050Z,0.10
2022-11-19T03:20:47.619Z,0.10
2022-11-19T03:24:54.330Z,0.10
2022-11-19T03:28:57.540Z,0.10
2022-11-19T03:33:03.487Z,0.10
2022-11-19T03:37:08.824Z,0.10
2022-11-19T03:41:12.732Z,0.10
2022-11-19T03:45:18.475Z,0.10
2022-11-19T03:49:26.031Z,0.10
2022-11-19T03:53:30.442Z,0.10
2022-11-19T03:57:34.298Z,0.10
2022-11-19T04:01:37.547Z,0.10
2022-11-19T04:05:40.223Z,0.10
2022-11-19T04:09:44.746Z,0.10
2022-11-19T04:13:47.765Z,0.10
2022-11-19T04:17:50.415Z,0.10
2022-11-19T04:21:53.263Z,0.10
2022-11-19T04:25:58.618Z,0.10
2022-11-19T04:30:01.307Z,0.10
2022-11-19T04:34:04.089Z,0.10
2022-11-19T04:38:07.039Z,0.10
2022-11-19T04:42:11.685Z,0.20
2022-11-19T04:46:14.325Z,0.10
2022-11-19T04:50:17.407Z,0.10
2022-11-19T04:54:20.089Z,0.10
2022-11-19T04:58:24.465Z,0.10
2022-11-19T05:02:27.434Z,0.10
2022-11-19T05:06:30.121Z,0.10
2022-11-19T05:10:33.065Z,0.10
2022-11-19T05:14:38.403Z,0.10
2022-11-19T05:18:41.291Z,0.10
2022-11-19T05:22:44.133Z,0.10
2022-11-19T05:26:46.804Z,0.10
2022-11-19T05:30:54.542Z,0.10
2022-11-19T05:34:57.510Z,0.10
2022-11-19T05:39:00.672Z,0.10
2022-11-19T05:43:07.662Z,0.20
2022-11-19T05:47:12.345Z,0.10
2022-11-19T05:51:15.332Z,0.20
2022-11-19T05:55:18.097Z,0.10
2022-11-19T05:59:21.331Z,0.10
2022-11-19T06:03:26.087Z,0.10
2022-11-19T06:07:28.805Z,0.10
2022-11-19T06:11:50.264Z,0.10
2022-11-19T06:15:54.091Z,0.10
2022-11-19T06:19:58.096Z,0.10
2022-11-19T06:24:00.814Z,0.10
2022-11-19T06:28:03.466Z,0.10
2022-11-19T06:32:06.384Z,0.10
2022-11-19T06:36:11.262Z,0.10
2022-11-19T06:40:15.440Z,0.10
2022-11-19T06:44:18.289Z,0.10
2022-11-19T06:48:21.094Z,0.10
2022-11-19T06:52:25.922Z,0.10
2022-11-19T06:56:28.652Z,0.10
2022-11-19T07:00:31.332Z,0.10
2022-11-19T07:04:34.022Z,0.10
2022-11-19T07:08:39.399Z,0.10
2022-11-19T07:12:42.093Z,0.10
2022-11-19T07:16:44.846Z,0.10
2022-11-19T07:20:47.720Z,0.10
2022-11-19T07:24:51.787Z,0.10
2022-11-19T07:28:54.782Z,0.10
2022-11-19T07:32:58.181Z,0.10
2022-11-19T07:37:00.821Z,0.10
2022-11-19T07:41:26.497Z,0.10
2022-11-19T07:45:29.530Z,0.10
2022-11-19T07:49:32.188Z,0.10
2022-11-19T07:53:34.919Z,0.20
2022-11-19T07:57:39.064Z,0.20
2022-11-19T08:01:41.964Z,0.20
2022-11-19T08:05:44.658Z,0.10
2022-11-19T08:09:47.309Z,0.10
2022-11-19T08:13:51.689Z,0.10
2022-11-19T08:18:11.656Z,0.10
2022-11-19T08:22:14.516Z,0.20
2022-11-19T08:26:17.176Z,0.10
2022-11-19T08:30:21.306Z,0.10
2022-11-19T08:34:25.036Z,0.10
2022-11-19T08:38:27.753Z,0.10
2022-11-19T08:42:47.721Z,0.10
2022-11-19T08:46:52.036Z,0.10
2022-11-19T08:50:54.687Z,0.20
2022-11-19T08:54:57.355Z,0.10
2022-11-19T08:59:03.069Z,0.10
2022-11-19T09:03:08.440Z,0.10
2022-11-19T09:07:11.209Z,0.10
2022-11-19T09:11:15.654Z,0.20
2022-11-19T09:15:18.577Z,0.20
2022-11-19T09:19:22.667Z,0.10
2022-11-19T09:23:26.671Z,0.20
2022-11-19T09:27:29.721Z,0.10
2022-11-19T09:31:32.390Z,0.10
2022-11-19T09:35:36.393Z,0.20
2022-11-19T09:39:39.902Z,0.10
2022-11-19T09:43:47.532Z,0.10
2022-11-19T09:48:08.430Z,0.20
2022-11-19T09:52:15.620Z,0.10
2022-11-19T09:56:22.574Z,0.10
2022-11-19T10:00:29.185Z,0.10
2022-11-19T10:04:33.386Z,0.10
2022-11-19T10:08:49.216Z,0.10
2022-11-19T10:13:11.907Z,0.10
2022-11-19T10:17:23.500Z,0.20
2022-11-19T10:21:29.345Z,0.10
2022-11-19T10:25:37.586Z,0.10
2022-11-19T10:29:41.008Z,0.10
2022-11-19T10:33:48.602Z,0.10
2022-11-19T10:37:55.740Z,0.20
2022-11-19T10:42:04.377Z,0.20
2022-11-19T10:46:10.754Z,0.10
2022-11-19T10:50:17.742Z,0.10
2022-11-19T10:54:23.879Z,0.10
2022-11-19T10:58:30.482Z,0.13
2022-11-19T11:02:40.436Z,0.10
2022-11-19T11:06:53.851Z,0.20
2022-11-19T11:10:57.232Z,0.10
2022-11-19T11:15:08.416Z,0.20
2022-11-19T11:19:14.610Z,0.10
2022-11-19T11:23:19.231Z,0.10
2022-11-19T11:27:23.862Z,0.10
2022-11-19T11:31:33.213Z,0.10
2022-11-19T12:08:47.187Z,0.00
2022-11-19T12:30:34.537Z,16.90
2022-11-19T12:34:50.449Z,13.40
2022-11-19T12:39:01.565Z,10.00
2022-11-19T12:43:11.085Z,12.00
2022-11-19T12:47:24.072Z,10.38
2022-11-19T12:51:36.147Z,9.23
2022-11-19T13:08:37.306Z,15.93
2022-11-19T13:12:44.388Z,13.67
2022-11-19T13:16:47.487Z,13.07
2022-11-19T13:20:51.894Z,13.23
2022-11-19T13:24:58.358Z,31.23
2022-11-19T13:29:08.279Z,11.17
2022-11-19T13:33:15.555Z,10.70
2022-11-19T13:37:24.253Z,11.77
2022-11-19T13:41:32.251Z,10.53
2022-11-19T13:45:35.811Z,11.47
2022-11-19T13:49:41.447Z,11.10
2022-11-19T13:53:45.840Z,12.50
2022-11-19T13:57:50.248Z,11.43
2022-11-19T14:02:06.113Z,10.47
2022-11-19T14:06:18.678Z,12.20
2022-11-19T14:10:24.512Z,11.70
2022-11-19T14:14:59.358Z,13.30
2022-11-19T14:19:20.985Z,14.77
2022-11-19T14:24:00.141Z,11.60
2022-11-19T14:28:38.174Z,10.57
2022-11-19T14:32:47.269Z,10.20
2022-11-19T14:36:52.330Z,10.10
2022-11-19T14:41:04.395Z,10.20
2022-11-19T14:45:28.216Z,10.83
2022-11-19T14:49:34.848Z,9.37
2022-11-19T14:53:38.831Z,11.70
2022-11-19T14:57:42.691Z,11.80
2022-11-19T15:01:59.260Z,16.27
2022-11-19T15:06:06.896Z,13.87
2022-11-19T15:10:48.230Z,12.10
2022-11-19T15:15:05.888Z,10.77
2022-11-19T15:19:26.458Z,9.77
2022-11-19T15:23:35.649Z,9.83
2022-11-19T15:27:52.343Z,9.63
2022-11-19T15:32:07.532Z,11.17
2022-11-19T15:36:23.115Z,11.90
2022-11-19T15:40:29.547Z,11.00
2022-11-19T15:44:50.607Z,10.90
2022-11-19T15:48:58.787Z,11.00
2022-11-19T15:53:02.901Z,10.97
2022-11-19T15:57:15.948Z,10.80
2022-11-19T16:01:21.196Z,12.47
2022-11-19T16:05:25.417Z,11.50
2022-11-19T16:09:28.372Z,17.77
2022-11-19T16:13:49.747Z,13.63
2022-11-19T16:17:52.458Z,13.93
2022-11-19T16:21:58.008Z,13.17
2022-11-19T16:26:02.684Z,13.07
2022-11-19T16:30:16.373Z,13.10
2022-11-19T16:34:22.845Z,13.07
2022-11-19T16:38:28.533Z,11.63
2022-11-19T16:42:32.734Z,11.27
2022-11-19T16:46:36.877Z,11.67
2022-11-19T16:50:45.302Z,11.20
2022-11-19T16:54:50.740Z,11.00
2022-11-19T16:58:54.491Z,11.10
2022-11-19T17:02:58.902Z,10.30
2022-11-19T17:07:01.804Z,11.40
2022-11-19T17:11:36.910Z,12.07
2022-11-19T17:15:40.737Z,10.17
2022-11-19T17:19:44.844Z,11.33
2022-11-19T17:23:49.073Z,12.20
2022-11-19T17:27:53.214Z,13.10
2022-11-19T17:31:56.548Z,11.33
2022-11-19T17:36:01.063Z,14.80
2022-11-19T17:40:04.038Z,17.00
2022-11-19T17:44:26.503Z,12.67
2022-11-19T17:48:30.354Z,11.33
2022-11-19T17:52:34.868Z,12.80
2022-11-19T17:56:37.483Z,13.67
2022-11-19T18:00:40.188Z,12.70
2022-11-19T18:04:44.027Z,15.20
2022-11-19T18:08:48.101Z,13.63
2022-11-19T18:12:50.778Z,12.57
2022-11-19T18:16:53.827Z,18.90
2022-11-19T18:21:01.691Z,13.27
2022-11-19T18:25:13.644Z,12.97
2022-11-19T18:29:16.336Z,13.87
2022-11-19T18:33:19.727Z,12.73
2022-11-19T18:37:23.167Z,12.97
2022-11-19T18:41:27.236Z,11.40
2022-11-19T18:45:30.328Z,11.73
2022-11-19T18:49:34.862Z,12.43
2022-11-19T18:53:37.806Z,12.23
2022-11-19T18:57:42.096Z,11.77
2022-11-19T19:01:44.922Z,11.67
2022-11-19T19:05:47.631Z,12.17
2022-11-19T19:09:50.359Z,12.13
2022-11-19T19:13:55.139Z,12.73
2022-11-19T19:17:58.160Z,14.63
2022-11-19T19:22:01.679Z,14.50
2022-11-19T19:26:04.357Z,15.80
2022-11-19T19:30:10.811Z,17.30
2022-11-19T19:34:13.472Z,14.53
2022-11-19T19:38:16.167Z,13.27
2022-11-19T19:42:18.812Z,14.17
2022-11-19T19:46:24.398Z,18.70
2022-11-19T19:50:27.238Z,25.17
2022-11-19T19:54:29.917Z,19.17
2022-11-19T19:58:32.656Z,11.97
2022-11-19T20:02:36.700Z,12.70
2022-11-19T20:06:41.559Z,11.00
2022-11-19T20:10:44.408Z,12.03
2022-11-19T20:14:47.143Z,11.77
2022-11-19T20:18:52.493Z,12.30
2022-11-19T20:22:55.466Z,12.20
2022-11-19T20:26:58.614Z,14.10
2022-11-19T20:31:05.188Z,11.87
2022-11-19T20:35:09.610Z,13.10
2022-11-19T20:39:12.685Z,16.53
2022-11-19T20:43:32.982Z,15.77
2022-11-19T20:47:35.679Z,16.37
2022-11-19T20:51:39.700Z,14.23
2022-11-19T20:56:03.760Z,11.97
2022-11-19T21:00:06.079Z,12.43
2022-11-19T21:04:09.176Z,14.17
2022-11-19T21:08:13.853Z,12.60
2022-11-19T21:12:16.552Z,14.40
2022-11-19T21:16:21.519Z,13.47
2022-11-19T21:20:24.207Z,15.97
2022-11-19T21:24:28.578Z,11.93
2022-11-19T21:28:31.626Z,12.53
2022-11-19T21:32:34.325Z,13.73
2022-11-19T21:36:37.387Z,13.60
2022-11-19T21:40:41.662Z,12.77
2022-11-19T21:44:44.596Z,13.53
2022-11-19T21:48:47.509Z,12.50
2022-11-19T21:52:50.248Z,13.73
2022-11-19T21:56:54.378Z,14.27
2022-11-19T22:00:58.562Z,14.17
2022-11-19T22:05:01.238Z,12.93
2022-11-19T22:09:04.112Z,12.97
2022-11-19T22:13:08.099Z,13.43
2022-11-19T22:17:11.089Z,13.83
2022-11-19T22:21:14.212Z,13.90
2022-11-19T22:25:16.987Z,13.17
2022-11-19T22:29:21.538Z,13.37
2022-11-19T22:33:24.378Z,14.07
2022-11-19T22:37:27.044Z,14.63
2022-11-19T22:41:29.699Z,13.63
2022-11-19T22:45:33.724Z,13.97
2022-11-19T22:49:36.343Z,13.50
2022-11-19T22:53:39.812Z,15.13
2022-11-19T22:57:42.468Z,15.17
2022-11-19T23:01:46.529Z,15.57
2022-11-19T23:05:51.142Z,15.23
2022-11-19T23:09:53.810Z,14.67
2022-11-19T23:13:56.805Z,15.07
2022-11-19T23:18:01.067Z,15.10
2022-11-19T23:22:03.698Z,16.00
2022-11-19T23:26:08.029Z,19.90
2022-11-19T23:30:11.717Z,16.03
2022-11-19T23:34:15.840Z,14.93
2022-11-19T23:38:18.660Z,15.50
2022-11-19T23:42:21.449Z,14.90
2022-11-19T23:46:25.689Z,15.40
2022-11-19T23:50:29.718Z,15.63
2022-11-19T23:54:32.417Z,16.70
2022-11-19T23:58:36.151Z,15.53
